createdAt,value
2018-04-23T00:00:46.529Z,22.2
2018-04-23T00:01:36.574Z,22.2
2018-04-23T00:02:25.863Z,22.2
2018-04-23T00:03:16.153Z,22.2
2018-04-23T00:04:06.518Z,22.2
2018-04-23T00:04:56.027Z,22.3
2018-04-23T00:05:46.660Z,22.2
2018-04-23T00:06:36.508Z,22.2
2018-04-23T00:07:26.778Z,22.2
2018-04-23T00:08:16.833Z,22.2
2018-04-23T00:09:06.591Z,22.2
2018-04-23T00:09:57.236Z,22.2
2018-04-23T00:10:46.280Z,22.2
2018-04-23T00:11:36.553Z,22.2
2018-04-23T00:12:26.455Z,22.2
2018-04-23T00:13:16.633Z,22.2
2018-04-23T00:14:07.280Z,22.2
2018-04-23T00:14:56.781Z,22.2
2018-04-23T00:15:47.226Z,22.2
2018-04-23T00:16:37.221Z,22.2
2018-04-23T00:17:27.504Z,22.2
2018-04-23T00:18:17.595Z,22.2
2018-04-23T00:19:06.550Z,22.2
2018-04-23T00:19:57.437Z,22.2
2018-04-23T00:20:48.141Z,22.2
2018-04-23T00:21:37.020Z,22.2
2018-04-23T00:22:27.906Z,22.2
2018-04-23T00:23:18.296Z,22.2
2018-04-23T00:24:08.303Z,22.2
2018-04-23T00:24:57.550Z,22.2
2018-04-23T00:25:47.890Z,22.2
2018-04-23T00:26:38.237Z,22.2
2018-04-23T00:27:28.315Z,22.2
2018-04-23T00:28:18.646Z,22.2
2018-04-23T00:29:08.724Z,22.2
2018-04-23T00:29:58.490Z,22.2
2018-04-23T00:30:48.625Z,22.2
2018-04-23T00:31:38.352Z,22.2
2018-04-23T00:32:28.418Z,22.2
2018-04-23T00:33:19.046Z,22.2
2018-04-23T00:34:08.331Z,22.2
2018-04-23T00:34:58.352Z,22.2
2018-04-23T00:35:48.993Z,22.2
2018-04-23T00:36:39.272Z,22.2
2018-04-23T00:37:28.813Z,22.2
2018-04-23T00:38:19.122Z,22.1
2018-04-23T00:39:08.709Z,22.2
2018-04-23T00:39:59.055Z,22.1
2018-04-23T00:40:49.611Z,22.2
2018-04-23T00:41:39.678Z,22.1
2018-04-23T00:42:28.985Z,22.2
2018-04-23T00:43:19.544Z,22.1
2018-04-23T00:44:09.085Z,22.2
2018-04-23T00:44:59.418Z,22.1
2018-04-23T00:45:49.477Z,22.2
2018-04-23T00:46:39.287Z,22.1
2018-04-23T00:47:29.249Z,22.1
2018-04-23T00:48:19.341Z,22.1
2018-04-23T00:49:10.235Z,22.1
2018-04-23T00:49:59.596Z,22.1
2018-04-23T00:50:49.886Z,22.1
2018-04-23T00:51:39.688Z,22.1
2018-04-23T00:52:29.477Z,22.1
2018-04-23T00:53:19.219Z,22.1
2018-04-23T00:54:10.132Z,22.1
2018-04-23T00:54:59.928Z,22.1
2018-04-23T00:55:50.264Z,22.1
2018-04-23T00:56:40.060Z,22.1
2018-04-23T00:57:30.851Z,22.1
2018-04-23T00:58:20.160Z,22.1
2018-04-23T00:59:10.712Z,22.1
2018-04-23T01:00:01.108Z,22.1
2018-04-23T01:00:51.155Z,22.1
2018-04-23T01:01:40.902Z,22.1
2018-04-23T01:02:30.011Z,22.1
2018-04-23T01:03:21.368Z,22.1
2018-04-23T01:04:11.360Z,22.1
2018-04-23T01:05:01.481Z,22.1
2018-04-23T01:05:51.483Z,22.1
2018-04-23T01:06:41.264Z,22.1
2018-04-23T01:07:30.845Z,22.1
2018-04-23T01:08:21.701Z,22.1
2018-04-23T01:09:11.233Z,22.1
2018-04-23T01:10:01.543Z,22.1
2018-04-23T01:10:51.348Z,22.1
2018-04-23T01:11:41.391Z,22.1
2018-04-23T01:12:32.032Z,22.1
2018-04-23T01:13:21.527Z,22.1
2018-04-23T01:14:12.181Z,22.1
2018-04-23T01:15:01.650Z,22.1
2018-04-23T01:15:51.994Z,22.1
2018-04-23T01:16:42.078Z,22.1
2018-04-23T01:17:32.162Z,22.1
2018-04-23T01:18:22.479Z,22.1
2018-04-23T01:19:12.261Z,22.1
2018-04-23T01:20:02.628Z,22.1
2018-04-23T01:20:52.350Z,22.1
2018-04-23T01:21:42.128Z,22.1
2018-04-23T01:22:32.794Z,22.1
2018-04-23T01:23:22.572Z,22.1
2018-04-23T01:24:12.614Z,22.1
2018-04-23T01:25:02.965Z,22.1
2018-04-23T01:25:52.260Z,22.1
2018-04-23T01:26:42.613Z,22.1
2018-04-23T01:27:32.424Z,22.1
2018-04-23T01:28:22.476Z,22.1
2018-04-23T01:29:12.538Z,22.1
2018-04-23T01:30:02.901Z,22.1
2018-04-23T01:30:52.410Z,22.1
2018-04-23T01:31:42.709Z,22.1
2018-04-23T01:32:32.774Z,22.1
2018-04-23T01:33:22.643Z,22.1
2018-04-23T01:34:13.111Z,22.1
2018-04-23T01:35:02.900Z,22.1
2018-04-23T01:35:53.599Z,22.1
2018-04-23T01:36:43.605Z,22.1
2018-04-23T01:37:33.673Z,22.1
2018-04-23T01:38:23.698Z,22.1
2018-04-23T01:39:13.835Z,22.1
2018-04-23T01:40:04.135Z,22.1
2018-04-23T01:40:54.172Z,22.1
2018-04-23T01:41:44.303Z,22.1
2018-04-23T01:42:34.048Z,22.1
2018-04-23T01:43:24.400Z,22.1
2018-04-23T01:44:13.975Z,22.1
2018-04-23T01:45:04.250Z,22.1
2018-04-23T01:45:54.563Z,22.1
2018-04-23T01:46:44.359Z,22.1
2018-04-23T01:47:34.457Z,22.1
2018-04-23T01:48:24.224Z,22.1
2018-04-23T01:49:14.570Z,22.1
2018-04-23T01:50:04.595Z,22.1
2018-04-23T01:50:54.987Z,22.1
2018-04-23T01:51:45.462Z,22.1
2018-04-23T01:52:35.257Z,22.1
2018-04-23T01:53:24.320Z,22.1
2018-04-23T01:54:14.992Z,22.1
2018-04-23T01:55:05.318Z,22.1
2018-04-23T01:55:54.770Z,22.1
2018-04-23T01:56:45.387Z,22.1
2018-04-23T01:57:34.915Z,22.1
2018-04-23T01:58:25.529Z,22.1
2018-04-23T01:59:15.876Z,22.1
2018-04-23T02:00:05.384Z,22.1
2018-04-23T02:00:55.462Z,22.1
2018-04-23T02:01:45.761Z,22.1
2018-04-23T02:02:34.719Z,22.1
2018-04-23T02:03:24.520Z,22.1
2018-04-23T02:04:14.852Z,22.1
2018-04-23T02:05:05.823Z,22.1
2018-04-23T02:05:55.528Z,22.1
2018-04-23T02:06:45.892Z,22.1
2018-04-23T02:07:35.396Z,22.1
2018-04-23T02:08:26.057Z,22.1
2018-04-23T02:09:16.371Z,22.1
2018-04-23T02:10:06.308Z,22.1
2018-04-23T02:10:56.229Z,22
2018-04-23T02:11:45.403Z,22.1
2018-04-23T02:12:36.336Z,22.1
2018-04-23T02:13:26.674Z,22.1
2018-04-23T02:14:16.764Z,22.1
2018-04-23T02:15:06.780Z,22.1
2018-04-23T02:15:56.316Z,22.1
2018-04-23T02:16:46.638Z,22.1
2018-04-23T02:17:37.024Z,22
2018-04-23T02:18:27.114Z,22.1
2018-04-23T02:19:16.845Z,22
2018-04-23T02:20:06.317Z,22.1
2018-04-23T02:20:57.219Z,22.1
2018-04-23T02:21:46.748Z,22
2018-04-23T02:22:36.833Z,22.1
2018-04-23T02:23:27.505Z,22.1
2018-04-23T02:24:17.484Z,22.1
2018-04-23T02:25:07.063Z,22
2018-04-23T02:25:57.717Z,22.1
2018-04-23T02:26:47.423Z,22
2018-04-23T02:27:37.211Z,22.1
2018-04-23T02:28:27.537Z,22
2018-04-23T02:29:17.899Z,22.1
2018-04-23T02:30:07.658Z,22
2018-04-23T02:30:57.753Z,22
2018-04-23T02:31:46.980Z,22.1
2018-04-23T02:32:37.613Z,22.1
2018-04-23T02:33:27.950Z,22.1
2018-04-23T02:34:17.743Z,22
2018-04-23T02:35:07.798Z,22
2018-04-23T02:35:58.226Z,22
2018-04-23T02:36:48.390Z,22
2018-04-23T02:37:37.774Z,22.1
2018-04-23T02:38:28.792Z,22
2018-04-23T02:39:18.402Z,22
2018-04-23T02:40:08.484Z,22
2018-04-23T02:40:58.530Z,22
2018-04-23T02:41:48.890Z,22
2018-04-23T02:42:38.718Z,22
2018-04-23T02:43:28.451Z,22
2018-04-23T02:44:18.506Z,22
2018-04-23T02:45:08.872Z,22
2018-04-23T02:45:59.154Z,22
2018-04-23T02:46:48.683Z,22
2018-04-23T02:47:38.475Z,22
2018-04-23T02:48:28.801Z,22
2018-04-23T02:49:18.606Z,22
2018-04-23T02:50:09.249Z,22
2018-04-23T02:50:59.790Z,22
2018-04-23T02:51:49.632Z,22
2018-04-23T02:52:39.136Z,22
2018-04-23T02:53:28.930Z,22
2018-04-23T02:54:19.541Z,22
2018-04-23T02:55:09.079Z,22
2018-04-23T02:55:59.681Z,22
2018-04-23T02:56:49.451Z,22
2018-04-23T02:57:39.529Z,22
2018-04-23T02:58:29.583Z,22
2018-04-23T02:59:20.199Z,22
2018-04-23T03:00:09.724Z,22
2018-04-23T03:00:59.240Z,22
2018-04-23T03:01:50.101Z,22
2018-04-23T03:02:40.241Z,22
2018-04-23T03:03:30.305Z,22
2018-04-23T03:04:20.604Z,22
2018-04-23T03:05:10.370Z,22
2018-04-23T03:06:00.425Z,22
2018-04-23T03:06:50.218Z,22
2018-04-23T03:07:40.830Z,22
2018-04-23T03:08:30.630Z,22
2018-04-23T03:09:20.966Z,22
2018-04-23T03:10:10.759Z,22
2018-04-23T03:11:00.571Z,22
2018-04-23T03:11:50.836Z,22
2018-04-23T03:12:40.704Z,22
2018-04-23T03:13:31.013Z,22
2018-04-23T03:14:21.065Z,22
2018-04-23T03:15:11.129Z,22
2018-04-23T03:16:01.533Z,22
2018-04-23T03:16:51.259Z,22
2018-04-23T03:17:41.577Z,22
2018-04-23T03:18:31.433Z,22
2018-04-23T03:19:21.436Z,22
2018-04-23T03:20:11.947Z,22
2018-04-23T03:21:01.559Z,21.9
2018-04-23T03:21:51.900Z,22
2018-04-23T03:22:41.691Z,22
2018-04-23T03:23:31.774Z,21.9
2018-04-23T03:24:21.268Z,22
2018-04-23T03:25:11.965Z,22
2018-04-23T03:26:02.351Z,22
2018-04-23T03:26:51.447Z,22
2018-04-23T03:27:42.076Z,22
2018-04-23T03:28:32.216Z,21.9
2018-04-23T03:29:22.199Z,21.9
2018-04-23T03:30:12.569Z,21.9
2018-04-23T03:31:02.649Z,21.9
2018-04-23T03:31:52.140Z,22
2018-04-23T03:32:42.189Z,21.9
2018-04-23T03:33:32.492Z,21.9
2018-04-23T03:34:22.843Z,21.9
2018-04-23T03:35:12.342Z,21.9
2018-04-23T03:36:02.993Z,21.9
2018-04-23T03:36:52.779Z,21.9
2018-04-23T03:37:42.962Z,21.9
2018-04-23T03:38:33.204Z,22
2018-04-23T03:39:23.261Z,21.9
2018-04-23T03:40:13.023Z,21.9
2018-04-23T03:41:03.095Z,21.9
2018-04-23T03:41:53.448Z,21.9
2018-04-23T03:42:43.278Z,21.9
2018-04-23T03:43:32.998Z,21.9
2018-04-23T03:44:23.769Z,21.9
2018-04-23T03:45:13.135Z,21.9
2018-04-23T03:46:03.514Z,21.9
2018-04-23T03:46:53.263Z,21.9
2018-04-23T03:47:43.341Z,21.9
2018-04-23T03:48:33.948Z,21.9
2018-04-23T03:49:23.457Z,21.9
2018-04-23T03:50:13.807Z,21.9
2018-04-23T03:51:04.106Z,21.9
2018-04-23T03:51:53.913Z,21.9
2018-04-23T03:52:44.243Z,21.9
2018-04-23T03:53:33.195Z,21.9
2018-04-23T03:54:24.085Z,21.9
2018-04-23T03:55:14.464Z,21.9
2018-04-23T03:56:04.278Z,21.9
2018-04-23T03:56:54.562Z,21.9
2018-04-23T03:57:44.494Z,21.9
2018-04-23T03:58:34.167Z,21.9
2018-04-23T03:59:24.771Z,21.9
2018-04-23T04:00:14.845Z,21.9
2018-04-23T04:01:04.354Z,21.9
2018-04-23T04:01:54.454Z,21.9
2018-04-23T04:02:44.179Z,21.9
2018-04-23T04:03:34.840Z,21.9
2018-04-23T04:04:25.145Z,21.9
2018-04-23T04:05:15.268Z,21.9
2018-04-23T04:06:04.767Z,21.9
2018-04-23T04:06:55.337Z,21.9
2018-04-23T04:07:44.836Z,21.9
2018-04-23T04:08:35.463Z,21.9
2018-04-23T04:09:25.228Z,21.9
2018-04-23T04:10:15.623Z,21.9
2018-04-23T04:11:05.386Z,21.9
2018-04-23T04:11:55.179Z,21.9
2018-04-23T04:12:45.552Z,21.9
2018-04-23T04:13:35.305Z,21.9
2018-04-23T04:14:25.422Z,21.9
2018-04-23T04:15:15.414Z,21.9
2018-04-23T04:16:06.129Z,21.9
2018-04-23T04:16:56.264Z,21.9
2018-04-23T04:17:46.186Z,21.9
2018-04-23T04:18:35.662Z,21.9
2018-04-23T04:19:26.076Z,21.9
2018-04-23T04:20:15.819Z,21.9
2018-04-23T04:21:05.598Z,21.9
2018-04-23T04:21:55.950Z,21.9
2018-04-23T04:22:46.578Z,21.9
2018-04-23T04:23:36.372Z,21.9
2018-04-23T04:24:26.437Z,21.9
2018-04-23T04:25:16.777Z,21.9
2018-04-23T04:26:06.831Z,21.9
2018-04-23T04:26:56.310Z,21.9
2018-04-23T04:27:45.826Z,21.9
2018-04-23T04:28:37.022Z,21.9
2018-04-23T04:29:26.818Z,21.9
2018-04-23T04:30:16.850Z,21.9
2018-04-23T04:31:06.661Z,21.9
2018-04-23T04:31:57.248Z,21.9
2018-04-23T04:32:47.338Z,21.9
2018-04-23T04:33:37.134Z,21.9
2018-04-23T04:34:27.456Z,21.9
2018-04-23T04:35:17.203Z,21.9
2018-04-23T04:36:07.298Z,21.9
2018-04-23T04:36:57.369Z,21.9
2018-04-23T04:37:47.510Z,21.9
2018-04-23T04:38:37.483Z,21.9
2018-04-23T04:39:27.823Z,21.9
2018-04-23T04:40:17.665Z,21.9
2018-04-23T04:41:07.749Z,21.9
2018-04-23T04:41:58.076Z,21.9
2018-04-23T04:42:48.189Z,21.9
2018-04-23T04:43:37.339Z,21.9
2018-04-23T04:44:27.972Z,21.9
2018-04-23T04:45:17.728Z,21.9
2018-04-23T04:46:08.408Z,21.9
2018-04-23T04:46:58.508Z,21.9
2018-04-23T04:47:48.269Z,21.9
2018-04-23T04:48:38.589Z,21.9
2018-04-23T04:49:28.657Z,21.9
2018-04-23T04:50:18.451Z,21.9
2018-04-23T04:51:08.741Z,21.9
2018-04-23T04:51:58.868Z,21.9
2018-04-23T04:52:48.013Z,21.9
2018-04-23T04:53:38.442Z,21.9
2018-04-23T04:54:28.744Z,21.9
2018-04-23T04:55:18.513Z,21.9
2018-04-23T04:56:08.293Z,21.9
2018-04-23T04:56:58.880Z,21.9
2018-04-23T04:57:48.408Z,21.9
2018-04-23T04:58:39.288Z,21.9
2018-04-23T04:59:29.400Z,21.9
2018-04-23T05:00:19.421Z,21.9
2018-04-23T05:01:08.935Z,21.9
2018-04-23T05:01:59.018Z,21.9
2018-04-23T05:02:49.660Z,21.9
2018-04-23T07:13:34.816Z,21.9
2018-04-23T07:14:25.103Z,21.9
2018-04-23T07:15:15.228Z,21.9
2018-04-23T07:16:05.257Z,21.9
2018-04-23T07:16:54.847Z,21.9
2018-04-23T07:17:45.100Z,21.9
2018-04-23T07:18:35.531Z,21.9
2018-04-23T07:19:24.796Z,21.9
2018-04-23T07:20:15.301Z,21.9
2018-04-23T07:21:05.075Z,21.9
2018-04-23T07:21:54.933Z,21.9
2018-04-23T07:22:45.197Z,21.9
2018-04-23T07:23:35.916Z,21.9
2018-04-23T07:24:25.333Z,21.9
2018-04-23T07:25:15.707Z,21.9
2018-04-23T07:26:05.191Z,21.9
2018-04-23T07:26:55.811Z,21.9
2018-04-23T07:27:45.602Z,21.9
2018-04-23T07:28:35.220Z,21.9
2018-04-23T07:29:25.959Z,21.9
2018-04-23T07:30:15.865Z,21.9
2018-04-23T07:31:06.161Z,21.9
2018-04-23T07:31:54.985Z,21.9
2018-04-23T07:32:46.532Z,21.9
2018-04-23T07:33:35.560Z,21.9
2018-04-23T07:34:26.658Z,21.9
2018-04-23T07:35:16.458Z,21.9
2018-04-23T07:36:06.050Z,21.9
2018-04-23T07:36:56.320Z,21.9
2018-04-23T07:37:46.173Z,21.9
2018-04-23T07:38:36.981Z,21.9
2018-04-23T07:39:26.873Z,21.9
2018-04-23T07:40:17.121Z,21.9
2018-04-23T07:41:07.178Z,21.9
2018-04-23T07:41:56.720Z,21.9
2018-04-23T07:42:46.764Z,21.9
2018-04-23T07:43:37.113Z,21.9
2018-04-23T07:44:27.158Z,21.9
2018-04-23T07:45:16.675Z,21.9
2018-04-23T07:46:07.012Z,21.9
2018-04-23T07:46:57.618Z,21.9
2018-04-23T07:47:47.233Z,21.9
2018-04-23T07:48:36.927Z,21.9
2018-04-23T07:49:27.385Z,21.9
2018-04-23T07:50:17.393Z,21.9
2018-04-23T07:51:07.728Z,21.9
2018-04-23T07:51:57.180Z,21.9
2018-04-23T07:52:48.111Z,21.9
2018-04-23T07:53:37.895Z,22
2018-04-23T07:54:27.414Z,21.9
2018-04-23T07:55:18.019Z,21.9
2018-04-23T07:56:07.240Z,21.9
2018-04-23T07:56:58.482Z,21.9
2018-04-23T07:57:48.268Z,22
2018-04-23T07:58:37.763Z,21.9
2018-04-23T07:59:28.642Z,21.9
2018-04-23T08:00:18.140Z,22
2018-04-23T08:01:08.220Z,21.9
2018-04-23T08:01:58.825Z,21.9
2018-04-23T08:02:48.064Z,21.9
2018-04-23T08:03:38.659Z,21.9
2018-04-23T08:04:28.484Z,21.9
2018-04-23T08:05:18.805Z,22
2018-04-23T08:06:08.920Z,21.9
2018-04-23T08:06:59.373Z,22
2018-04-23T08:07:48.972Z,21.9
2018-04-23T08:08:39.366Z,22
2018-04-23T08:09:29.421Z,21.9
2018-04-23T08:10:19.470Z,22
2018-04-23T08:11:08.772Z,22
2018-04-23T08:11:59.344Z,22
2018-04-23T08:12:49.665Z,22
2018-04-23T08:13:38.876Z,22
2018-04-23T08:14:28.363Z,22
2018-04-23T08:15:19.571Z,22
2018-04-23T08:16:08.914Z,22
2018-04-23T08:16:59.153Z,22
2018-04-23T08:17:49.480Z,22
2018-04-23T08:18:38.615Z,22
2018-04-23T08:19:29.683Z,22
2018-04-23T08:20:19.225Z,22
2018-04-23T08:21:10.027Z,22
2018-04-23T08:22:00.132Z,22
2018-04-23T08:22:50.184Z,22
2018-04-23T08:23:40.571Z,22
2018-04-23T08:24:30.593Z,22
2018-04-23T08:25:19.047Z,22
2018-04-23T08:26:10.143Z,22
2018-04-23T08:27:00.216Z,22
2018-04-23T08:27:50.334Z,22
2018-04-23T08:28:40.330Z,22
2018-04-23T08:29:30.751Z,22
2018-04-23T08:30:21.049Z,22
2018-04-23T08:31:11.166Z,22
2018-04-23T08:32:01.350Z,22
2018-04-23T08:32:50.946Z,22
2018-04-23T08:33:40.442Z,22
2018-04-23T08:34:31.073Z,22
2018-04-23T08:35:21.415Z,22
2018-04-23T08:36:10.402Z,22
2018-04-23T08:37:01.297Z,22
2018-04-23T08:37:51.063Z,22
2018-04-23T08:38:41.418Z,22
2018-04-23T08:39:31.203Z,22
2018-04-23T08:40:21.187Z,22
2018-04-23T08:41:11.877Z,22.1
2018-04-23T08:42:01.376Z,22
2018-04-23T08:42:51.465Z,22
2018-04-23T08:43:42.125Z,22.1
2018-04-23T08:44:32.124Z,22
2018-04-23T08:45:21.887Z,22
2018-04-23T08:46:11.680Z,22
2018-04-23T08:47:02.040Z,22
2018-04-23T08:47:52.120Z,22.1
2018-04-23T08:48:42.168Z,22.1
2018-04-23T08:49:32.547Z,22.1
2018-04-23T08:50:22.807Z,22
2018-04-23T08:51:12.358Z,22
2018-04-23T08:52:02.713Z,22
2018-04-23T08:52:52.513Z,22
2018-04-23T08:53:42.620Z,22
2018-04-23T08:54:32.910Z,22
2018-04-23T08:55:22.749Z,22
2018-04-23T08:56:12.787Z,22.1
2018-04-23T08:57:02.578Z,22
2018-04-23T08:57:53.186Z,22.1
2018-04-23T08:58:42.967Z,22.1
2018-04-23T08:59:32.799Z,22.1
2018-04-23T09:00:23.573Z,22
2018-04-23T09:01:13.464Z,22.1
2018-04-23T09:02:03.267Z,22.1
2018-04-23T09:02:52.754Z,22
2018-04-23T09:03:43.386Z,22.1
2018-04-23T09:04:33.468Z,22.1
2018-04-23T09:05:23.529Z,22.1
2018-04-23T09:06:13.049Z,22.1
2018-04-23T09:07:03.079Z,22.1
2018-04-23T09:07:53.718Z,22.1
2018-04-23T09:08:43.784Z,22.1
2018-04-23T09:09:33.864Z,22.1
2018-04-23T09:10:23.934Z,22.1
2018-04-23T09:11:14.237Z,22.1
2018-04-23T09:12:04.353Z,22.1
2018-04-23T09:12:53.539Z,22.1
2018-04-23T09:13:43.616Z,22.1
2018-04-23T09:14:34.556Z,22.1
2018-04-23T09:15:24.583Z,22.1
2018-04-23T09:16:14.118Z,22.1
2018-04-23T09:17:03.843Z,22.1
2018-04-23T09:17:55.581Z,22.1
2018-04-23T09:18:44.525Z,22.1
2018-04-23T09:19:34.645Z,22.1
2018-04-23T09:20:22.996Z,22.1
2018-04-23T09:21:14.467Z,22.1
2018-04-23T09:22:04.548Z,22.1
2018-04-23T09:22:54.903Z,22.1
2018-04-23T09:23:44.709Z,22.1
2018-04-23T09:24:35.330Z,22.1
2018-04-23T09:25:25.113Z,22.1
2018-04-23T09:26:15.474Z,22.1
2018-04-23T09:27:04.965Z,22.1
2018-04-23T09:27:55.022Z,22.1
2018-04-23T09:28:45.094Z,22.1
2018-04-23T09:29:34.648Z,22.1
2018-04-23T09:30:25.490Z,22.1
2018-04-23T09:31:15.525Z,22.1
2018-04-23T09:32:04.800Z,22.1
2018-04-23T09:32:54.894Z,22.1
2018-04-23T09:33:45.148Z,22.1
2018-04-23T09:34:36.076Z,22.1
2018-04-23T09:35:25.622Z,22.1
2018-04-23T09:36:15.924Z,22.1
2018-04-23T09:37:05.791Z,22.1
2018-04-23T09:37:56.021Z,22.1
2018-04-23T09:38:46.098Z,22.1
2018-04-23T09:39:35.904Z,22.1
2018-04-23T09:40:25.418Z,22.1
2018-04-23T09:41:16.304Z,22.1
2018-04-23T09:42:06.365Z,22.1
2018-04-23T09:42:56.725Z,22.1
2018-04-23T09:43:46.525Z,22.1
2018-04-23T09:44:37.455Z,22.1
2018-04-23T09:45:26.388Z,22.1
2018-04-23T09:46:16.221Z,22.1
2018-04-23T09:47:06.800Z,22.1
2018-04-23T09:47:56.578Z,22.1
2018-04-23T09:48:46.343Z,22.1
2018-04-23T09:49:36.999Z,22.1
2018-04-23T09:50:27.023Z,22.1
2018-04-23T09:51:16.675Z,22.1
2018-04-23T09:52:07.513Z,22.1
2018-04-23T09:52:57.251Z,22.1
2018-04-23T09:53:47.332Z,22.1
2018-04-23T09:54:37.421Z,22.1
2018-04-23T09:55:26.662Z,22.1
2018-04-23T09:56:17.290Z,22.1
2018-04-23T09:57:07.832Z,22.1
2018-04-23T09:57:57.363Z,22.1
2018-04-23T09:58:47.931Z,22.1
2018-04-23T09:59:36.764Z,22.1
2018-04-23T10:00:28.100Z,22.1
2018-04-23T10:01:18.141Z,22.1
2018-04-23T10:02:08.265Z,22.1
2018-04-23T10:02:58.301Z,22.1
2018-04-23T10:03:47.778Z,22.1
2018-04-23T10:04:37.887Z,22.1
2018-04-23T10:05:28.210Z,22.1
2018-04-23T10:06:17.740Z,22.1
2018-04-23T10:07:08.107Z,22.1
2018-04-23T10:07:58.411Z,22.1
2018-04-23T10:08:48.467Z,22.1
2018-04-23T10:09:38.840Z,22.1
2018-04-23T10:10:28.854Z,22.1
2018-04-23T10:11:18.396Z,22.1
2018-04-23T10:12:09.316Z,22.1
2018-04-23T10:12:58.312Z,22.1
2018-04-23T10:13:48.280Z,22.1
2018-04-23T10:14:39.223Z,22.1
2018-04-23T10:15:28.502Z,22.1
2018-04-23T10:16:18.777Z,22.1
2018-04-23T10:17:09.401Z,22.1
2018-04-23T10:17:58.901Z,22.1
2018-04-23T10:18:49.228Z,22.1
2018-04-23T10:19:38.478Z,22.1
2018-04-23T10:20:29.680Z,22.1
2018-04-23T10:21:19.709Z,22.1
2018-04-23T10:22:09.246Z,22.1
2018-04-23T10:22:59.853Z,22.1
2018-04-23T10:23:49.407Z,22.1
2018-04-23T10:24:39.156Z,22.1
2018-04-23T10:25:29.587Z,22.1
2018-04-23T10:26:20.114Z,22.1
2018-04-23T10:27:10.147Z,22.1
2018-04-23T10:27:59.981Z,22.1
2018-04-23T10:28:49.746Z,22.1
2018-04-23T10:29:40.140Z,22.1
2018-04-23T10:30:30.479Z,22.1
2018-04-23T10:31:20.308Z,22.1
2018-04-23T10:32:10.049Z,22.1
2018-04-23T10:33:00.516Z,22.1
2018-04-23T10:33:50.796Z,22.1
2018-04-23T10:34:40.246Z,22.1
2018-04-23T10:35:30.559Z,22.1
2018-04-23T10:36:20.921Z,22.1
2018-04-23T10:37:10.704Z,22.1
2018-04-23T10:38:00.771Z,22.1
2018-04-23T10:38:50.064Z,22.1
2018-04-23T10:39:41.192Z,22.1
2018-04-23T10:40:30.675Z,22.1
2018-04-23T10:41:20.735Z,22.1
2018-04-23T10:42:11.354Z,22.2
2018-04-23T10:43:01.444Z,22.1
2018-04-23T10:43:51.193Z,22.1
2018-04-23T10:44:40.737Z,22.1
2018-04-23T10:45:32.218Z,22.1
2018-04-23T10:46:20.856Z,22.1
2018-04-23T10:47:11.452Z,22.1
2018-04-23T10:48:01.840Z,22.2
2018-04-23T10:48:51.938Z,22.1
2018-04-23T10:49:41.396Z,22.1
2018-04-23T10:50:31.762Z,22.1
2018-04-23T10:51:21.523Z,22.1
2018-04-23T10:52:10.739Z,22.1
2018-04-23T10:53:01.968Z,22.1
2018-04-23T10:53:52.256Z,22.2
2018-04-23T10:54:41.511Z,22.2
2018-04-23T10:55:32.163Z,22.1
2018-04-23T10:56:21.623Z,22.2
2018-04-23T10:57:11.551Z,22.2
2018-04-23T10:58:02.048Z,22.2
2018-04-23T10:58:52.690Z,22.2
2018-04-23T10:59:42.479Z,22.2
2018-04-23T11:00:32.525Z,22.2
2018-04-23T11:01:22.345Z,22.2
2018-04-23T11:02:12.378Z,22.2
2018-04-23T11:03:01.962Z,22.2
2018-04-23T11:03:52.050Z,22.2
2018-04-23T11:04:41.762Z,22.2
2018-04-23T11:05:32.649Z,22.2
2018-04-23T11:06:22.680Z,22.2
2018-04-23T11:07:13.345Z,22.2
2018-04-23T11:08:02.882Z,22.2
2018-04-23T11:08:53.184Z,22.2
2018-04-23T11:09:43.483Z,22.2
2018-04-23T11:10:33.276Z,22.2
2018-04-23T11:11:23.644Z,22.2
2018-04-23T11:12:13.769Z,22.2
2018-04-23T11:13:02.302Z,22.2
2018-04-23T11:13:53.573Z,22.2
2018-04-23T11:14:43.365Z,22.2
2018-04-23T11:15:33.459Z,22.2
2018-04-23T11:16:24.035Z,22.2
2018-04-23T11:17:13.286Z,22.2
2018-04-23T11:18:03.902Z,22.3
2018-04-23T11:18:53.708Z,22.2
2018-04-23T11:19:43.786Z,22.3
2018-04-23T11:20:33.848Z,22.3
2018-04-23T11:21:23.625Z,22.3
2018-04-23T11:22:14.254Z,22.3
2018-04-23T11:23:03.768Z,22.2
2018-04-23T11:23:54.085Z,22.3
2018-04-23T11:24:44.652Z,22.3
2018-04-23T11:25:33.769Z,22.3
2018-04-23T11:26:24.871Z,22.3
2018-04-23T11:27:13.530Z,22.3
2018-04-23T11:28:04.435Z,22.3
2018-04-23T11:28:54.483Z,22.3
2018-04-23T11:29:44.277Z,22.3
2018-04-23T11:30:34.428Z,22.3
2018-04-23T11:31:24.694Z,22.3
2018-04-23T11:32:14.491Z,22.3
2018-04-23T11:33:05.125Z,22.3
2018-04-23T11:33:55.205Z,22.3
2018-04-23T11:34:45.221Z,22.3
2018-04-23T11:35:35.600Z,22.3
2018-04-23T11:36:25.378Z,22.3
2018-04-23T11:37:14.682Z,22.3
2018-04-23T11:38:05.232Z,22.3
2018-04-23T11:38:55.088Z,22.3
2018-04-23T11:39:45.392Z,22.3
2018-04-23T11:40:34.849Z,22.3
2018-04-23T11:41:25.481Z,22.3
2018-04-23T11:42:15.252Z,22.3
2018-04-23T11:43:05.386Z,22.3
2018-04-23T11:43:55.190Z,22.3
2018-04-23T11:44:44.981Z,22.3
2018-04-23T11:45:36.363Z,22.3
2018-04-23T11:46:25.611Z,22.3
2018-04-23T11:47:16.539Z,22.3
2018-04-23T11:48:06.535Z,22.3
2018-04-23T11:48:56.678Z,22.3
2018-04-23T11:49:46.104Z,22.3
2018-04-23T11:50:36.786Z,22.3
2018-04-23T11:51:26.243Z,22.3
2018-04-23T11:52:16.064Z,22.3
2018-04-23T11:53:06.788Z,22.3
2018-04-23T11:53:56.771Z,22.3
2018-04-23T11:54:46.249Z,22.3
2018-04-23T11:55:36.869Z,22.3
2018-04-23T11:56:26.396Z,22.3
2018-04-23T11:57:17.021Z,22.3
2018-04-23T11:58:06.805Z,22.3
2018-04-23T11:58:56.894Z,22.3
2018-04-23T11:59:46.525Z,22.3
2018-04-23T12:00:37.247Z,22.3
2018-04-23T12:01:27.353Z,22.4
2018-04-23T12:02:17.654Z,22.4
2018-04-23T12:03:07.522Z,22.4
2018-04-23T12:03:57.237Z,22.4
2018-04-23T12:04:47.303Z,22.4
2018-04-23T12:05:37.933Z,22.4
2018-04-23T12:06:26.869Z,22.4
2018-04-23T12:07:17.807Z,22.4
2018-04-23T12:08:06.746Z,22.4
2018-04-23T12:08:57.059Z,22.4
2018-04-23T12:09:47.224Z,22.4
2018-04-23T12:10:37.203Z,22.4
2018-04-23T12:11:28.136Z,22.4
2018-04-23T12:12:17.470Z,22.4
2018-04-23T12:13:07.060Z,22.5
2018-04-23T12:13:56.340Z,22.5
2018-04-23T12:14:47.537Z,22.5
2018-04-23T12:15:37.887Z,22.5
2018-04-23T12:16:28.749Z,22.5
2018-04-23T12:17:18.847Z,22.5
2018-04-23T12:18:08.344Z,22.5
2018-04-23T12:18:58.655Z,22.5
2018-04-23T12:19:48.513Z,22.5
2018-04-23T12:20:37.711Z,22.5
2018-04-23T12:21:28.885Z,22.6
2018-04-23T12:22:18.712Z,22.6
2018-04-23T12:23:08.794Z,22.6
2018-04-23T12:23:59.071Z,22.6
2018-04-23T12:24:48.341Z,22.5
2018-04-23T12:25:39.477Z,22.5
2018-04-23T12:26:29.538Z,22.5
2018-04-23T12:27:19.653Z,22.5
2018-04-23T12:28:09.391Z,22.6
2018-04-23T12:28:59.772Z,22.5
2018-04-23T12:29:49.527Z,22.6
2018-04-23T12:30:39.894Z,22.6
2018-04-23T12:31:29.989Z,22.6
2018-04-23T12:32:19.792Z,22.6
2018-04-23T12:33:09.861Z,22.6
2018-04-23T12:34:00.245Z,22.6
2018-04-23T12:34:50.010Z,22.6
2018-04-23T12:35:39.796Z,22.5
2018-04-23T12:36:30.141Z,22.6
2018-04-23T12:37:19.913Z,22.6
2018-04-23T12:38:10.635Z,22.6
2018-04-23T12:39:00.030Z,22.6
2018-04-23T12:39:50.098Z,22.6
2018-04-23T12:40:40.749Z,22.6
2018-04-23T12:41:30.798Z,22.6
2018-04-23T12:42:20.021Z,22.6
2018-04-23T12:43:10.670Z,22.6
2018-04-23T12:44:00.703Z,22.6
2018-04-23T12:45:05.151Z,22.6
2018-04-23T12:45:41.143Z,22.6
2018-04-23T12:46:29.777Z,22.6
2018-04-23T12:47:21.199Z,22.6
2018-04-23T12:48:11.013Z,22.6
2018-04-23T12:49:01.338Z,22.6
2018-04-23T12:49:50.623Z,22.6
2018-04-23T12:50:40.926Z,22.6
2018-04-23T12:51:31.546Z,22.6
2018-04-23T12:52:21.386Z,22.6
2018-04-23T12:53:11.675Z,22.6
2018-04-23T12:54:00.888Z,22.6
2018-04-23T12:54:51.855Z,22.6
2018-04-23T12:55:41.861Z,22.6
2018-04-23T12:56:31.210Z,22.6
2018-04-23T12:57:21.439Z,22.6
2018-04-23T12:58:11.211Z,22.6
2018-04-23T12:59:01.875Z,22.6
2018-04-23T12:59:51.344Z,22.6
2018-04-23T13:00:42.291Z,22.6
2018-04-23T13:01:32.324Z,22.6
2018-04-23T13:02:21.882Z,22.6
2018-04-23T13:03:11.639Z,22.6
2018-04-23T13:04:02.067Z,22.6
2018-04-23T13:04:52.133Z,22.6
2018-04-23T13:05:42.101Z,22.6
2018-04-23T13:06:32.738Z,22.6
2018-04-23T13:07:22.795Z,22.6
2018-04-23T13:08:12.585Z,22.6
2018-04-23T13:09:01.809Z,22.6
2018-04-23T13:09:51.593Z,22.6
2018-04-23T13:10:42.523Z,22.6
2018-04-23T13:11:32.611Z,22.6
2018-04-23T13:12:23.879Z,22.6
2018-04-23T13:13:12.691Z,22.6
2018-04-23T13:14:02.771Z,22.6
2018-04-23T13:14:53.112Z,22.6
2018-04-23T13:15:42.051Z,22.6
2018-04-23T13:16:33.245Z,22.6
2018-04-23T13:17:23.369Z,22.6
2018-04-23T13:18:12.906Z,22.6
2018-04-23T13:19:03.745Z,22.6
2018-04-23T13:19:53.491Z,22.6
2018-04-23T13:20:43.844Z,22.6
2018-04-23T13:21:33.960Z,22.6
2018-04-23T13:22:22.588Z,22.6
2018-04-23T13:23:13.742Z,22.6
2018-04-23T13:24:04.191Z,22.6